sensor_id;sensor_type;location;lat;lon;timestamp;P1;durP1;ratioP1;P2;durP2;ratioP2
34142;SDS011;20419;10.658;106.724;2023-07-20T00:00:58;8.40;;;4.68;;
34142;SDS011;20419;10.658;106.724;2023-07-20T00:03:25;8.02;;;5.05;;
34142;SDS011;20419;10.658;106.724;2023-07-20T00:05:52;6.57;;;4.00;;
34142;SDS011;20419;10.658;106.724;2023-07-20T00:08:19;6.68;;;4.38;;
34142;SDS011;20419;10.658;106.724;2023-07-20T00:10:46;6.13;;;4.10;;
34142;SDS011;20419;10.658;106.724;2023-07-20T00:13:14;8.38;;;4.78;;
34142;SDS011;20419;10.658;106.724;2023-07-20T00:15:44;7.97;;;4.25;;
34142;SDS011;20419;10.658;106.724;2023-07-20T00:18:11;5.65;;;4.07;;
34142;SDS011;20419;10.658;106.724;2023-07-20T00:20:39;7.95;;;4.60;;
34142;SDS011;20419;10.658;106.724;2023-07-20T00:23:06;8.75;;;5.38;;
34142;SDS011;20419;10.658;106.724;2023-07-20T00:25:33;7.07;;;4.70;;
34142;SDS011;20419;10.658;106.724;2023-07-20T00:28:01;7.82;;;4.57;;
34142;SDS011;20419;10.658;106.724;2023-07-20T00:30:28;6.68;;;4.45;;
34142;SDS011;20419;10.658;106.724;2023-07-20T00:32:55;6.90;;;4.25;;
34142;SDS011;20419;10.658;106.724;2023-07-20T00:35:22;7.05;;;4.53;;
34142;SDS011;20419;10.658;106.724;2023-07-20T00:37:49;8.63;;;4.32;;
34142;SDS011;20419;10.658;106.724;2023-07-20T00:40:16;7.50;;;4.47;;
34142;SDS011;20419;10.658;106.724;2023-07-20T00:42:43;7.32;;;4.25;;
34142;SDS011;20419;10.658;106.724;2023-07-20T00:45:10;6.57;;;4.10;;
34142;SDS011;20419;10.658;106.724;2023-07-20T00:47:37;7.07;;;4.60;;
34142;SDS011;20419;10.658;106.724;2023-07-20T00:50:05;7.03;;;4.38;;
34142;SDS011;20419;10.658;106.724;2023-07-20T00:52:33;6.63;;;4.50;;
34142;SDS011;20419;10.658;106.724;2023-07-20T00:55:00;7.13;;;4.68;;
34142;SDS011;20419;10.658;106.724;2023-07-20T00:57:27;7.45;;;4.80;;
34142;SDS011;20419;10.658;106.724;2023-07-20T00:59:54;5.93;;;3.83;;
34142;SDS011;20419;10.658;106.724;2023-07-20T01:02:21;9.30;;;4.70;;
34142;SDS011;20419;10.658;106.724;2023-07-20T01:04:48;6.47;;;4.30;;
34142;SDS011;20419;10.658;106.724;2023-07-20T01:09:48;6.00;;;4.40;;
34142;SDS011;20419;10.658;106.724;2023-07-20T01:12:18;6.60;;;4.78;;
34142;SDS011;20419;10.658;106.724;2023-07-20T01:14:49;7.88;;;5.03;;
34142;SDS011;20419;10.658;106.724;2023-07-20T01:17:17;7.30;;;5.43;;
34142;SDS011;20419;10.658;106.724;2023-07-20T01:19:44;6.40;;;4.18;;
34142;SDS011;20419;10.658;106.724;2023-07-20T01:32:32;7.25;;;4.88;;
34142;SDS011;20419;10.658;106.724;2023-07-20T01:35:00;7.28;;;4.97;;
34142;SDS011;20419;10.658;106.724;2023-07-20T01:37:28;7.95;;;5.13;;
34142;SDS011;20419;10.658;106.724;2023-07-20T01:39:58;7.05;;;5.03;;
34142;SDS011;20419;10.658;106.724;2023-07-20T01:42:26;6.15;;;4.93;;
34142;SDS011;20419;10.658;106.724;2023-07-20T01:44:53;7.72;;;5.15;;
34142;SDS011;20419;10.658;106.724;2023-07-20T01:47:21;6.25;;;4.40;;
34142;SDS011;20419;10.658;106.724;2023-07-20T01:49:48;6.35;;;5.10;;
34142;SDS011;20419;10.658;106.724;2023-07-20T01:52:15;6.30;;;5.20;;
34142;SDS011;20419;10.658;106.724;2023-07-20T01:54:42;8.05;;;5.03;;
34142;SDS011;20419;10.658;106.724;2023-07-20T01:57:09;8.40;;;5.18;;
34142;SDS011;20419;10.658;106.724;2023-07-20T01:59:36;7.00;;;4.65;;
34142;SDS011;20419;10.658;106.724;2023-07-20T02:02:04;7.00;;;5.03;;
34142;SDS011;20419;10.658;106.724;2023-07-20T02:04:31;8.05;;;5.03;;
34142;SDS011;20419;10.658;106.724;2023-07-20T02:06:58;6.50;;;4.38;;
34142;SDS011;20419;10.658;106.724;2023-07-20T02:09:26;7.05;;;4.68;;
34142;SDS011;20419;10.658;106.724;2023-07-20T02:11:53;6.35;;;4.60;;
34142;SDS011;20419;10.658;106.724;2023-07-20T02:14:20;5.85;;;4.18;;
34142;SDS011;20419;10.658;106.724;2023-07-20T02:16:48;7.00;;;4.68;;
34142;SDS011;20419;10.658;106.724;2023-07-20T02:19:20;6.43;;;4.45;;
34142;SDS011;20419;10.658;106.724;2023-07-20T02:21:47;6.60;;;4.40;;
34142;SDS011;20419;10.658;106.724;2023-07-20T02:24:14;6.97;;;4.57;;
34142;SDS011;20419;10.658;106.724;2023-07-20T02:26:41;7.05;;;4.30;;
34142;SDS011;20419;10.658;106.724;2023-07-20T02:29:09;5.53;;;4.10;;
34142;SDS011;20419;10.658;106.724;2023-07-20T02:31:37;6.75;;;4.30;;
34142;SDS011;20419;10.658;106.724;2023-07-20T02:34:05;7.03;;;4.32;;
34142;SDS011;20419;10.658;106.724;2023-07-20T02:36:32;7.18;;;4.88;;
34142;SDS011;20419;10.658;106.724;2023-07-20T02:38:59;7.60;;;4.28;;
34142;SDS011;20419;10.658;106.724;2023-07-20T02:41:27;6.43;;;4.20;;
34142;SDS011;20419;10.658;106.724;2023-07-20T02:43:54;5.10;;;3.72;;
34142;SDS011;20419;10.658;106.724;2023-07-20T02:46:22;5.57;;;3.65;;
34142;SDS011;20419;10.658;106.724;2023-07-20T02:48:49;6.45;;;4.22;;
34142;SDS011;20419;10.658;106.724;2023-07-20T02:51:16;5.68;;;4.07;;
34142;SDS011;20419;10.658;106.724;2023-07-20T02:53:43;6.57;;;4.47;;
34142;SDS011;20419;10.658;106.724;2023-07-20T02:56:10;7.72;;;4.57;;
34142;SDS011;20419;10.658;106.724;2023-07-20T02:58:39;6.03;;;3.92;;
34142;SDS011;20419;10.658;106.724;2023-07-20T03:01:09;5.40;;;4.07;;
34142;SDS011;20419;10.658;106.724;2023-07-20T03:03:36;5.65;;;4.00;;
34142;SDS011;20419;10.658;106.724;2023-07-20T03:06:04;6.68;;;4.43;;
34142;SDS011;20419;10.658;106.724;2023-07-20T03:08:31;5.78;;;4.18;;
34142;SDS011;20419;10.658;106.724;2023-07-20T03:10:58;5.38;;;3.72;;
34142;SDS011;20419;10.658;106.724;2023-07-20T03:13:25;6.25;;;4.18;;
34142;SDS011;20419;10.658;106.724;2023-07-20T03:15:53;6.30;;;3.80;;
34142;SDS011;20419;10.658;106.724;2023-07-20T03:18:20;5.55;;;3.90;;
34142;SDS011;20419;10.658;106.724;2023-07-20T03:20:47;5.45;;;3.65;;
34142;SDS011;20419;10.658;106.724;2023-07-20T03:23:14;5.30;;;3.92;;
34142;SDS011;20419;10.658;106.724;2023-07-20T03:25:42;6.15;;;4.00;;
34142;SDS011;20419;10.658;106.724;2023-07-20T03:28:09;5.45;;;3.72;;
34142;SDS011;20419;10.658;106.724;2023-07-20T03:30:36;6.28;;;4.28;;
34142;SDS011;20419;10.658;106.724;2023-07-20T03:33:03;5.25;;;3.35;;
34142;SDS011;20419;10.658;106.724;2023-07-20T03:35:30;5.70;;;3.67;;
34142;SDS011;20419;10.658;106.724;2023-07-20T03:37:57;4.75;;;3.28;;
34142;SDS011;20419;10.658;106.724;2023-07-20T03:40:24;5.70;;;3.60;;
34142;SDS011;20419;10.658;106.724;2023-07-20T03:42:51;4.63;;;3.30;;
34142;SDS011;20419;10.658;106.724;2023-07-20T03:45:18;5.35;;;4.05;;
34142;SDS011;20419;10.658;106.724;2023-07-20T03:47:45;5.22;;;3.83;;
34142;SDS011;20419;10.658;106.724;2023-07-20T03:50:13;6.20;;;3.97;;
34142;SDS011;20419;10.658;106.724;2023-07-20T03:52:40;5.93;;;3.70;;
34142;SDS011;20419;10.658;106.724;2023-07-20T03:55:08;5.32;;;3.60;;
34142;SDS011;20419;10.658;106.724;2023-07-20T03:57:35;5.22;;;3.35;;
34142;SDS011;20419;10.658;106.724;2023-07-20T04:00:02;4.88;;;3.28;;
34142;SDS011;20419;10.658;106.724;2023-07-20T04:02:32;5.47;;;3.28;;
34142;SDS011;20419;10.658;106.724;2023-07-20T04:04:59;6.07;;;3.72;;
34142;SDS011;20419;10.658;106.724;2023-07-20T04:07:26;5.38;;;3.67;;
34142;SDS011;20419;10.658;106.724;2023-07-20T04:09:53;5.80;;;3.35;;
34142;SDS011;20419;10.658;106.724;2023-07-20T04:12:20;6.00;;;3.95;;
34142;SDS011;20419;10.658;106.724;2023-07-20T04:14:47;6.03;;;4.00;;
34142;SDS011;20419;10.658;106.724;2023-07-20T04:17:14;5.53;;;3.90;;
34142;SDS011;20419;10.658;106.724;2023-07-20T04:19:41;4.78;;;3.58;;
34142;SDS011;20419;10.658;106.724;2023-07-20T04:22:08;4.43;;;3.45;;
34142;SDS011;20419;10.658;106.724;2023-07-20T04:24:35;6.47;;;3.80;;
34142;SDS011;20419;10.658;106.724;2023-07-20T04:27:02;4.95;;;3.70;;
34142;SDS011;20419;10.658;106.724;2023-07-20T04:29:29;4.82;;;3.65;;
34142;SDS011;20419;10.658;106.724;2023-07-20T04:31:57;5.80;;;3.53;;
34142;SDS011;20419;10.658;106.724;2023-07-20T04:34:24;5.97;;;3.63;;
34142;SDS011;20419;10.658;106.724;2023-07-20T04:36:51;4.88;;;3.10;;
34142;SDS011;20419;10.658;106.724;2023-07-20T04:39:19;5.68;;;3.40;;
34142;SDS011;20419;10.658;106.724;2023-07-20T04:41:46;5.43;;;3.30;;
34142;SDS011;20419;10.658;106.724;2023-07-20T04:44:13;5.68;;;3.67;;
34142;SDS011;20419;10.658;106.724;2023-07-20T04:46:40;5.45;;;3.60;;
34142;SDS011;20419;10.658;106.724;2023-07-20T04:49:07;5.68;;;3.35;;
34142;SDS011;20419;10.658;106.724;2023-07-20T04:51:34;5.15;;;2.97;;
34142;SDS011;20419;10.658;106.724;2023-07-20T04:54:01;5.50;;;3.70;;
34142;SDS011;20419;10.658;106.724;2023-07-20T04:56:28;4.95;;;3.40;;
34142;SDS011;20419;10.658;106.724;2023-07-20T04:58:56;5.88;;;3.38;;
34142;SDS011;20419;10.658;106.724;2023-07-20T05:01:23;5.13;;;3.60;;
34142;SDS011;20419;10.658;106.724;2023-07-20T05:03:50;4.43;;;3.30;;
34142;SDS011;20419;10.658;106.724;2023-07-20T05:06:17;5.28;;;3.60;;
34142;SDS011;20419;10.658;106.724;2023-07-20T05:08:44;5.63;;;3.53;;
34142;SDS011;20419;10.658;106.724;2023-07-20T05:11:11;5.72;;;3.50;;
34142;SDS011;20419;10.658;106.724;2023-07-20T05:13:39;4.82;;;3.42;;
34142;SDS011;20419;10.658;106.724;2023-07-20T05:16:06;5.93;;;3.50;;
34142;SDS011;20419;10.658;106.724;2023-07-20T05:18:33;5.38;;;3.67;;
34142;SDS011;20419;10.658;106.724;2023-07-20T05:21:00;4.82;;;3.10;;
34142;SDS011;20419;10.658;106.724;2023-07-20T05:23:27;4.30;;;3.22;;
34142;SDS011;20419;10.658;106.724;2023-07-20T05:25:55;4.88;;;3.47;;
34142;SDS011;20419;10.658;106.724;2023-07-20T05:28:25;5.03;;;3.00;;
34142;SDS011;20419;10.658;106.724;2023-07-20T05:30:53;6.75;;;3.22;;
34142;SDS011;20419;10.658;106.724;2023-07-20T05:33:20;4.72;;;2.90;;
34142;SDS011;20419;10.658;106.724;2023-07-20T05:35:48;4.80;;;3.17;;
34142;SDS011;20419;10.658;106.724;2023-07-20T05:38:15;4.10;;;3.00;;
34142;SDS011;20419;10.658;106.724;2023-07-20T05:40:43;4.85;;;3.55;;
34142;SDS011;20419;10.658;106.724;2023-07-20T05:43:11;4.65;;;3.30;;
34142;SDS011;20419;10.658;106.724;2023-07-20T05:45:41;4.70;;;3.05;;
34142;SDS011;20419;10.658;106.724;2023-07-20T05:48:08;5.32;;;3.40;;
34142;SDS011;20419;10.658;106.724;2023-07-20T05:50:45;4.80;;;3.22;;
34142;SDS011;20419;10.658;106.724;2023-07-20T05:53:12;4.78;;;3.40;;
34142;SDS011;20419;10.658;106.724;2023-07-20T05:55:39;5.28;;;3.30;;
34142;SDS011;20419;10.658;106.724;2023-07-20T05:58:06;4.68;;;3.30;;
34142;SDS011;20419;10.658;106.724;2023-07-20T06:00:34;5.00;;;3.08;;
34142;SDS011;20419;10.658;106.724;2023-07-20T06:03:01;6.07;;;3.67;;
34142;SDS011;20419;10.658;106.724;2023-07-20T06:05:29;5.70;;;3.28;;
34142;SDS011;20419;10.658;106.724;2023-07-20T06:07:56;5.18;;;3.60;;
34142;SDS011;20419;10.658;106.724;2023-07-20T06:15:41;5.68;;;3.55;;
34142;SDS011;20419;10.658;106.724;2023-07-20T06:18:09;7.03;;;3.60;;
34142;SDS011;20419;10.658;106.724;2023-07-20T06:20:36;5.60;;;3.60;;
34142;SDS011;20419;10.658;106.724;2023-07-20T06:23:03;5.43;;;3.65;;
34142;SDS011;20419;10.658;106.724;2023-07-20T06:25:30;6.55;;;4.00;;
34142;SDS011;20419;10.658;106.724;2023-07-20T06:27:57;5.13;;;3.50;;
34142;SDS011;20419;10.658;106.724;2023-07-20T06:30:24;5.03;;;3.70;;
34142;SDS011;20419;10.658;106.724;2023-07-20T06:32:51;6.32;;;3.53;;
34142;SDS011;20419;10.658;106.724;2023-07-20T06:35:19;5.32;;;3.60;;
34142;SDS011;20419;10.658;106.724;2023-07-20T06:37:46;6.35;;;4.20;;
34142;SDS011;20419;10.658;106.724;2023-07-20T06:40:13;6.47;;;4.05;;
34142;SDS011;20419;10.658;106.724;2023-07-20T06:42:40;5.72;;;3.50;;
34142;SDS011;20419;10.658;106.724;2023-07-20T06:45:07;5.30;;;3.47;;
34142;SDS011;20419;10.658;106.724;2023-07-20T06:47:34;4.95;;;3.60;;
34142;SDS011;20419;10.658;106.724;2023-07-20T06:50:01;5.75;;;4.18;;
34142;SDS011;20419;10.658;106.724;2023-07-20T06:52:28;6.00;;;3.92;;
34142;SDS011;20419;10.658;106.724;2023-07-20T06:54:56;5.50;;;3.35;;
34142;SDS011;20419;10.658;106.724;2023-07-20T06:57:23;5.78;;;3.60;;
34142;SDS011;20419;10.658;106.724;2023-07-20T06:59:50;6.30;;;3.90;;
34142;SDS011;20419;10.658;106.724;2023-07-20T07:02:18;5.63;;;3.45;;
34142;SDS011;20419;10.658;106.724;2023-07-20T07:04:45;6.03;;;3.97;;
34142;SDS011;20419;10.658;106.724;2023-07-20T07:07:15;6.15;;;3.80;;
34142;SDS011;20419;10.658;106.724;2023-07-20T07:09:42;5.15;;;3.50;;
34142;SDS011;20419;10.658;106.724;2023-07-20T07:12:09;6.78;;;3.72;;
34142;SDS011;20419;10.658;106.724;2023-07-20T07:14:36;5.88;;;3.40;;
34142;SDS011;20419;10.658;106.724;2023-07-20T07:17:03;6.03;;;3.70;;
34142;SDS011;20419;10.658;106.724;2023-07-20T07:19:30;5.43;;;3.42;;
34142;SDS011;20419;10.658;106.724;2023-07-20T07:21:57;5.22;;;3.45;;
34142;SDS011;20419;10.658;106.724;2023-07-20T07:24:24;5.68;;;3.83;;
34142;SDS011;20419;10.658;106.724;2023-07-20T07:26:53;6.65;;;3.42;;
34142;SDS011;20419;10.658;106.724;2023-07-20T07:29:20;5.50;;;3.33;;
34142;SDS011;20419;10.658;106.724;2023-07-20T07:31:47;5.13;;;3.60;;
34142;SDS011;20419;10.658;106.724;2023-07-20T07:34:14;4.47;;;3.13;;
34142;SDS011;20419;10.658;106.724;2023-07-20T07:36:41;5.28;;;3.50;;
34142;SDS011;20419;10.658;106.724;2023-07-20T07:39:08;4.65;;;3.00;;
34142;SDS011;20419;10.658;106.724;2023-07-20T07:41:36;6.63;;;3.67;;
34142;SDS011;20419;10.658;106.724;2023-07-20T07:44:03;5.43;;;3.38;;
34142;SDS011;20419;10.658;106.724;2023-07-20T07:46:31;5.60;;;3.60;;
34142;SDS011;20419;10.658;106.724;2023-07-20T07:48:58;5.20;;;3.60;;
34142;SDS011;20419;10.658;106.724;2023-07-20T07:51:25;5.15;;;3.40;;
34142;SDS011;20419;10.658;106.724;2023-07-20T07:53:55;4.57;;;2.88;;
34142;SDS011;20419;10.658;106.724;2023-07-20T07:56:22;4.82;;;3.40;;
34142;SDS011;20419;10.658;106.724;2023-07-20T07:58:49;4.95;;;3.17;;
34142;SDS011;20419;10.658;106.724;2023-07-20T08:01:19;5.50;;;3.33;;
34142;SDS011;20419;10.658;106.724;2023-07-20T08:03:47;5.70;;;3.53;;
34142;SDS011;20419;10.658;106.724;2023-07-20T08:06:14;5.43;;;3.30;;
34142;SDS011;20419;10.658;106.724;2023-07-20T08:08:41;5.22;;;3.38;;
34142;SDS011;20419;10.658;106.724;2023-07-20T08:11:09;5.22;;;3.47;;
34142;SDS011;20419;10.658;106.724;2023-07-20T08:13:36;5.18;;;3.47;;
34142;SDS011;20419;10.658;106.724;2023-07-20T08:16:03;4.80;;;3.13;;
34142;SDS011;20419;10.658;106.724;2023-07-20T08:18:30;4.47;;;3.00;;
34142;SDS011;20419;10.658;106.724;2023-07-20T08:20:57;4.43;;;3.00;;
34142;SDS011;20419;10.658;106.724;2023-07-20T08:23:24;5.43;;;3.40;;
34142;SDS011;20419;10.658;106.724;2023-07-20T08:25:53;5.78;;;3.72;;
34142;SDS011;20419;10.658;106.724;2023-07-20T08:28:20;5.07;;;3.45;;
34142;SDS011;20419;10.658;106.724;2023-07-20T08:30:48;5.20;;;3.08;;
34142;SDS011;20419;10.658;106.724;2023-07-20T08:33:16;5.23;;;2.97;;
34142;SDS011;20419;10.658;106.724;2023-07-20T08:35:46;4.68;;;2.90;;
34142;SDS011;20419;10.658;106.724;2023-07-20T08:38:14;5.55;;;3.33;;
34142;SDS011;20419;10.658;106.724;2023-07-20T08:40:42;5.03;;;3.00;;
34142;SDS011;20419;10.658;106.724;2023-07-20T08:43:13;6.23;;;3.63;;
34142;SDS011;20419;10.658;106.724;2023-07-20T08:45:44;5.13;;;3.33;;
34142;SDS011;20419;10.658;106.724;2023-07-20T08:48:11;5.43;;;3.30;;
34142;SDS011;20419;10.658;106.724;2023-07-20T08:50:39;5.18;;;2.90;;
34142;SDS011;20419;10.658;106.724;2023-07-20T08:53:06;4.78;;;3.13;;
34142;SDS011;20419;10.658;106.724;2023-07-20T08:55:33;5.28;;;3.47;;
34142;SDS011;20419;10.658;106.724;2023-07-20T08:58:01;4.70;;;3.13;;
34142;SDS011;20419;10.658;106.724;2023-07-20T09:00:29;4.80;;;3.30;;
34142;SDS011;20419;10.658;106.724;2023-07-20T09:02:56;4.60;;;3.13;;
34142;SDS011;20419;10.658;106.724;2023-07-20T09:05:25;6.63;;;3.28;;
34142;SDS011;20419;10.658;106.724;2023-07-20T09:07:53;4.63;;;3.28;;
34142;SDS011;20419;10.658;106.724;2023-07-20T09:10:23;4.30;;;2.90;;
34142;SDS011;20419;10.658;106.724;2023-07-20T09:12:51;4.20;;;3.22;;
34142;SDS011;20419;10.658;106.724;2023-07-20T09:15:18;3.97;;;2.80;;
34142;SDS011;20419;10.658;106.724;2023-07-20T09:17:46;4.30;;;3.30;;
34142;SDS011;20419;10.658;106.724;2023-07-20T09:20:15;3.95;;;3.03;;
34142;SDS011;20419;10.658;106.724;2023-07-20T09:22:42;5.53;;;3.30;;
34142;SDS011;20419;10.658;106.724;2023-07-20T09:25:12;4.97;;;3.13;;
34142;SDS011;20419;10.658;106.724;2023-07-20T09:27:44;5.68;;;3.35;;
34142;SDS011;20419;10.658;106.724;2023-07-20T09:30:13;5.32;;;3.20;;
34142;SDS011;20419;10.658;106.724;2023-07-20T09:32:42;5.90;;;3.47;;
34142;SDS011;20419;10.658;106.724;2023-07-20T09:37:36;5.38;;;3.63;;
34142;SDS011;20419;10.658;106.724;2023-07-20T09:40:03;5.45;;;3.53;;
34142;SDS011;20419;10.658;106.724;2023-07-20T09:42:34;5.18;;;2.95;;
34142;SDS011;20419;10.658;106.724;2023-07-20T09:45:02;5.75;;;3.17;;
34142;SDS011;20419;10.658;106.724;2023-07-20T09:47:29;5.45;;;3.30;;
34142;SDS011;20419;10.658;106.724;2023-07-20T09:49:59;5.35;;;3.30;;
34142;SDS011;20419;10.658;106.724;2023-07-20T09:52:26;5.68;;;3.53;;
34142;SDS011;20419;10.658;106.724;2023-07-20T09:54:54;4.57;;;3.40;;
34142;SDS011;20419;10.658;106.724;2023-07-20T09:57:21;5.00;;;3.00;;
34142;SDS011;20419;10.658;106.724;2023-07-20T09:59:49;4.40;;;3.17;;
34142;SDS011;20419;10.658;106.724;2023-07-20T10:02:20;4.72;;;3.25;;
34142;SDS011;20419;10.658;106.724;2023-07-20T10:04:49;4.70;;;3.60;;
34142;SDS011;20419;10.658;106.724;2023-07-20T10:07:18;5.00;;;3.33;;
34142;SDS011;20419;10.658;106.724;2023-07-20T10:09:48;4.65;;;3.38;;
34142;SDS011;20419;10.658;106.724;2023-07-20T10:12:15;6.93;;;3.47;;
34142;SDS011;20419;10.658;106.724;2023-07-20T10:14:44;5.15;;;3.13;;
34142;SDS011;20419;10.658;106.724;2023-07-20T10:17:14;5.40;;;3.35;;
34142;SDS011;20419;10.658;106.724;2023-07-20T10:19:42;4.93;;;2.92;;
34142;SDS011;20419;10.658;106.724;2023-07-20T10:22:12;5.78;;;3.60;;
34142;SDS011;20419;10.658;106.724;2023-07-20T10:24:44;5.03;;;3.25;;
34142;SDS011;20419;10.658;106.724;2023-07-20T10:27:12;6.97;;;3.78;;
34142;SDS011;20419;10.658;106.724;2023-07-20T10:29:40;5.05;;;3.80;;
34142;SDS011;20419;10.658;106.724;2023-07-20T10:32:07;5.63;;;3.50;;
34142;SDS011;20419;10.658;106.724;2023-07-20T10:34:34;5.45;;;3.63;;
34142;SDS011;20419;10.658;106.724;2023-07-20T10:37:02;5.78;;;3.63;;
34142;SDS011;20419;10.658;106.724;2023-07-20T10:39:32;5.05;;;3.60;;
34142;SDS011;20419;10.658;106.724;2023-07-20T10:42:00;4.63;;;3.45;;
34142;SDS011;20419;10.658;106.724;2023-07-20T10:44:29;6.57;;;4.18;;
34142;SDS011;20419;10.658;106.724;2023-07-20T10:47:00;5.90;;;3.72;;
34142;SDS011;20419;10.658;106.724;2023-07-20T10:49:28;6.00;;;3.80;;
34142;SDS011;20419;10.658;106.724;2023-07-20T10:51:58;4.88;;;3.17;;
34142;SDS011;20419;10.658;106.724;2023-07-20T10:56:54;4.45;;;3.40;;
34142;SDS011;20419;10.658;106.724;2023-07-20T11:01:55;5.40;;;3.80;;
34142;SDS011;20419;10.658;106.724;2023-07-20T11:07:10;5.43;;;3.67;;
34142;SDS011;20419;10.658;106.724;2023-07-20T11:09:42;5.35;;;3.85;;
34142;SDS011;20419;10.658;106.724;2023-07-20T11:12:16;4.25;;;3.10;;
34142;SDS011;20419;10.658;106.724;2023-07-20T11:14:52;5.95;;;3.78;;
34142;SDS011;20419;10.658;106.724;2023-07-20T11:17:20;6.50;;;3.72;;
34142;SDS011;20419;10.658;106.724;2023-07-20T11:19:48;6.22;;;3.67;;
34142;SDS011;20419;10.658;106.724;2023-07-20T11:22:18;5.82;;;4.18;;
34142;SDS011;20419;10.658;106.724;2023-07-20T11:24:45;5.78;;;3.65;;
34142;SDS011;20419;10.658;106.724;2023-07-20T11:29:41;5.65;;;3.50;;
34142;SDS011;20419;10.658;106.724;2023-07-20T11:32:08;5.93;;;4.10;;
34142;SDS011;20419;10.658;106.724;2023-07-20T11:34:35;5.45;;;3.58;;
34142;SDS011;20419;10.658;106.724;2023-07-20T11:37:02;5.25;;;3.65;;
34142;SDS011;20419;10.658;106.724;2023-07-20T11:39:30;5.40;;;3.90;;
34142;SDS011;20419;10.658;106.724;2023-07-20T11:41:57;5.65;;;3.60;;
34142;SDS011;20419;10.658;106.724;2023-07-20T11:44:25;5.55;;;3.90;;
34142;SDS011;20419;10.658;106.724;2023-07-20T11:47:07;4.85;;;4.28;;
34142;SDS011;20419;10.658;106.724;2023-07-20T11:49:37;4.55;;;3.55;;
34142;SDS011;20419;10.658;106.724;2023-07-20T11:52:06;6.40;;;3.92;;
34142;SDS011;20419;10.658;106.724;2023-07-20T11:54:34;6.18;;;3.90;;
34142;SDS011;20419;10.658;106.724;2023-07-20T11:57:01;5.47;;;4.10;;
34142;SDS011;20419;10.658;106.724;2023-07-20T11:59:29;6.18;;;4.10;;
34142;SDS011;20419;10.658;106.724;2023-07-20T12:01:57;6.00;;;3.53;;
34142;SDS011;20419;10.658;106.724;2023-07-20T12:04:25;5.50;;;3.63;;
34142;SDS011;20419;10.658;106.724;2023-07-20T12:06:53;5.13;;;3.70;;
34142;SDS011;20419;10.658;106.724;2023-07-20T12:09:20;5.75;;;4.00;;
34142;SDS011;20419;10.658;106.724;2023-07-20T12:11:49;5.50;;;3.70;;
34142;SDS011;20419;10.658;106.724;2023-07-20T12:14:16;5.95;;;3.90;;
34142;SDS011;20419;10.658;106.724;2023-07-20T12:16:43;5.50;;;3.70;;
34142;SDS011;20419;10.658;106.724;2023-07-20T12:19:13;5.60;;;3.88;;
34142;SDS011;20419;10.658;106.724;2023-07-20T12:21:41;4.53;;;3.50;;
34142;SDS011;20419;10.658;106.724;2023-07-20T12:24:08;4.72;;;3.28;;
34142;SDS011;20419;10.658;106.724;2023-07-20T12:26:37;5.28;;;3.70;;
34142;SDS011;20419;10.658;106.724;2023-07-20T12:29:04;5.07;;;3.38;;
34142;SDS011;20419;10.658;106.724;2023-07-20T12:31:33;5.35;;;3.60;;
34142;SDS011;20419;10.658;106.724;2023-07-20T12:34:01;5.18;;;3.65;;
34142;SDS011;20419;10.658;106.724;2023-07-20T12:36:28;4.78;;;3.35;;
34142;SDS011;20419;10.658;106.724;2023-07-20T12:38:56;5.88;;;3.33;;
34142;SDS011;20419;10.658;106.724;2023-07-20T12:41:24;6.20;;;4.07;;
34142;SDS011;20419;10.658;106.724;2023-07-20T12:43:51;5.82;;;4.35;;
34142;SDS011;20419;10.658;106.724;2023-07-20T12:46:19;6.93;;;3.85;;
34142;SDS011;20419;10.658;106.724;2023-07-20T12:48:46;5.60;;;3.75;;
34142;SDS011;20419;10.658;106.724;2023-07-20T12:51:13;5.00;;;3.70;;
34142;SDS011;20419;10.658;106.724;2023-07-20T12:53:40;4.97;;;3.83;;
34142;SDS011;20419;10.658;106.724;2023-07-20T12:56:07;4.45;;;3.63;;
34142;SDS011;20419;10.658;106.724;2023-07-20T12:58:34;5.55;;;3.75;;
34142;SDS011;20419;10.658;106.724;2023-07-20T13:01:02;5.78;;;3.83;;
34142;SDS011;20419;10.658;106.724;2023-07-20T13:03:29;5.45;;;3.55;;
34142;SDS011;20419;10.658;106.724;2023-07-20T13:05:56;5.68;;;4.10;;
34142;SDS011;20419;10.658;106.724;2023-07-20T13:08:23;5.45;;;4.20;;
34142;SDS011;20419;10.658;106.724;2023-07-20T13:10:52;5.50;;;3.53;;
34142;SDS011;20419;10.658;106.724;2023-07-20T13:13:20;6.07;;;3.67;;
34142;SDS011;20419;10.658;106.724;2023-07-20T13:15:47;5.57;;;3.90;;
34142;SDS011;20419;10.658;106.724;2023-07-20T13:18:15;5.50;;;3.50;;
34142;SDS011;20419;10.658;106.724;2023-07-20T13:20:44;5.03;;;3.65;;
34142;SDS011;20419;10.658;106.724;2023-07-20T13:23:11;4.97;;;3.55;;
34142;SDS011;20419;10.658;106.724;2023-07-20T13:25:38;5.10;;;3.35;;
34142;SDS011;20419;10.658;106.724;2023-07-20T13:28:05;5.38;;;3.80;;
34142;SDS011;20419;10.658;106.724;2023-07-20T13:30:32;5.50;;;4.07;;
34142;SDS011;20419;10.658;106.724;2023-07-20T13:32:59;5.07;;;3.35;;
34142;SDS011;20419;10.658;106.724;2023-07-20T13:35:27;6.65;;;3.67;;
34142;SDS011;20419;10.658;106.724;2023-07-20T13:37:54;4.75;;;3.50;;
34142;SDS011;20419;10.658;106.724;2023-07-20T13:40:21;4.57;;;3.67;;
34142;SDS011;20419;10.658;106.724;2023-07-20T13:42:48;5.30;;;3.85;;
34142;SDS011;20419;10.658;106.724;2023-07-20T13:45:16;5.35;;;3.92;;
34142;SDS011;20419;10.658;106.724;2023-07-20T13:47:43;8.13;;;4.65;;
34142;SDS011;20419;10.658;106.724;2023-07-20T13:50:10;5.78;;;4.10;;
34142;SDS011;20419;10.658;106.724;2023-07-20T13:52:39;5.80;;;3.50;;
34142;SDS011;20419;10.658;106.724;2023-07-20T13:57:34;5.47;;;4.18;;
34142;SDS011;20419;10.658;106.724;2023-07-20T14:00:04;4.90;;;3.58;;
34142;SDS011;20419;10.658;106.724;2023-07-20T14:02:34;6.30;;;4.28;;
34142;SDS011;20419;10.658;106.724;2023-07-20T14:05:02;5.28;;;3.92;;
34142;SDS011;20419;10.658;106.724;2023-07-20T14:07:29;6.07;;;4.05;;
34142;SDS011;20419;10.658;106.724;2023-07-20T14:09:56;5.28;;;3.75;;
34142;SDS011;20419;10.658;106.724;2023-07-20T14:12:25;6.68;;;4.30;;
34142;SDS011;20419;10.658;106.724;2023-07-20T14:14:53;5.43;;;3.80;;
34142;SDS011;20419;10.658;106.724;2023-07-20T14:17:21;4.97;;;3.72;;
34142;SDS011;20419;10.658;106.724;2023-07-20T14:19:48;5.97;;;3.95;;
34142;SDS011;20419;10.658;106.724;2023-07-20T14:22:17;5.97;;;4.05;;
34142;SDS011;20419;10.658;106.724;2023-07-20T14:24:44;5.60;;;4.15;;
34142;SDS011;20419;10.658;106.724;2023-07-20T14:27:14;6.47;;;3.90;;
34142;SDS011;20419;10.658;106.724;2023-07-20T14:29:45;6.07;;;4.22;;
34142;SDS011;20419;10.658;106.724;2023-07-20T14:32:12;6.05;;;4.18;;
34142;SDS011;20419;10.658;106.724;2023-07-20T14:34:41;5.53;;;3.83;;
34142;SDS011;20419;10.658;106.724;2023-07-20T14:37:08;4.80;;;3.72;;
34142;SDS011;20419;10.658;106.724;2023-07-20T14:39:36;5.57;;;3.85;;
34142;SDS011;20419;10.658;106.724;2023-07-20T14:42:03;5.85;;;3.97;;
34142;SDS011;20419;10.658;106.724;2023-07-20T14:44:32;6.15;;;4.35;;
34142;SDS011;20419;10.658;106.724;2023-07-20T14:47:00;5.78;;;4.25;;
34142;SDS011;20419;10.658;106.724;2023-07-20T14:49:27;6.10;;;4.38;;
34142;SDS011;20419;10.658;106.724;2023-07-20T14:51:54;5.80;;;4.00;;
34142;SDS011;20419;10.658;106.724;2023-07-20T14:54:21;6.43;;;4.22;;
34142;SDS011;20419;10.658;106.724;2023-07-20T14:56:49;5.78;;;4.38;;